sensor_id;sensor_type;location;lat;lon;timestamp;pressure;altitude;pressure_sealevel;temperature;humidity
37390;BME280;39679;49.000;8.390;2022-10-16T00:04:55;99984.69;;;19.69;64.48
37390;BME280;39679;49.000;8.390;2022-10-16T00:09:56;99987.34;;;19.69;64.32
37390;BME280;39679;49.000;8.390;2022-10-16T00:14:56;99986.50;;;19.68;64.70
37390;BME280;39679;49.000;8.390;2022-10-16T00:19:56;99979.38;;;19.69;64.53
37390;BME280;39679;49.000;8.390;2022-10-16T00:24:57;99976.69;;;19.70;64.35
37390;BME280;39679;49.000;8.390;2022-10-16T00:29:57;99979.28;;;19.72;64.29
37390;BME280;39679;49.000;8.390;2022-10-16T00:34:57;99972.94;;;19.76;64.34
37390;BME280;39679;49.000;8.390;2022-10-16T00:39:58;99984.44;;;19.77;64.39
37390;BME280;39679;49.000;8.390;2022-10-16T00:44:58;99979.94;;;19.79;63.94
37390;BME280;39679;49.000;8.390;2022-10-16T00:50:30;99973.63;;;19.81;64.18
37390;BME280;39679;49.000;8.390;2022-10-16T00:55:31;99972.66;;;19.84;64.06
37390;BME280;39679;49.000;8.390;2022-10-16T01:00:31;99994.69;;;19.87;63.33
37390;BME280;39679;49.000;8.390;2022-10-16T01:05:45;100006.13;;;19.91;63.28
37390;BME280;39679;49.000;8.390;2022-10-16T01:16:32;100002.44;;;19.95;62.80
37390;BME280;39679;49.000;8.390;2022-10-16T01:21:43;100002.44;;;19.95;62.80
37390;BME280;39679;49.000;8.390;2022-10-16T01:32:15;99997.06;;;19.96;62.75
37390;BME280;39679;49.000;8.390;2022-10-16T01:37:32;99994.34;;;19.98;62.42
37390;BME280;39679;49.000;8.390;2022-10-16T01:42:40;99988.09;;;19.99;62.49
37390;BME280;39679;49.000;8.390;2022-10-16T01:47:42;99984.50;;;20.00;62.22
37390;BME280;39679;49.000;8.390;2022-10-16T01:52:48;99982.66;;;20.02;62.32
37390;BME280;39679;49.000;8.390;2022-10-16T01:57:50;99984.47;;;20.01;62.38
37390;BME280;39679;49.000;8.390;2022-10-16T02:02:53;99980.88;;;20.02;62.04
37390;BME280;39679;49.000;8.390;2022-10-16T02:07:54;99979.97;;;20.03;62.30
37390;BME280;39679;49.000;8.390;2022-10-16T02:12:58;99999.44;;;20.04;62.26
37390;BME280;39679;49.000;8.390;2022-10-16T02:18:05;100000.31;;;20.04;61.88
37390;BME280;39679;49.000;8.390;2022-10-16T02:23:05;100006.56;;;20.03;62.16
37390;BME280;39679;49.000;8.390;2022-10-16T02:33:11;100017.16;;;20.05;61.62
37390;BME280;39679;49.000;8.390;2022-10-16T02:38:14;100007.41;;;20.04;61.78
37390;BME280;39679;49.000;8.390;2022-10-16T02:43:15;100006.50;;;20.05;61.66
37390;BME280;39679;49.000;8.390;2022-10-16T02:48:16;100001.19;;;20.05;61.64
37390;BME280;39679;49.000;8.390;2022-10-16T02:53:16;100005.63;;;20.04;61.57
37390;BME280;39679;49.000;8.390;2022-10-16T02:58:17;100016.28;;;20.04;61.85
37390;BME280;39679;49.000;8.390;2022-10-16T03:03:17;100019.81;;;20.05;61.58
37390;BME280;39679;49.000;8.390;2022-10-16T03:08:17;100028.59;;;20.07;61.68
37390;BME280;39679;49.000;8.390;2022-10-16T03:13:18;100031.25;;;20.07;61.88
37390;BME280;39679;49.000;8.390;2022-10-16T03:18:18;100023.28;;;20.07;61.83
37390;BME280;39679;49.000;8.390;2022-10-16T03:23:19;100018.84;;;20.07;61.76
37390;BME280;39679;49.000;8.390;2022-10-16T03:28:19;100013.47;;;20.09;61.57
37390;BME280;39679;49.000;8.390;2022-10-16T03:33:19;100016.13;;;20.09;61.74
37390;BME280;39679;49.000;8.390;2022-10-16T03:38:20;100022.31;;;20.09;61.67
37390;BME280;39679;49.000;8.390;2022-10-16T03:43:21;100035.63;;;20.09;61.53
37390;BME280;39679;49.000;8.390;2022-10-16T03:48:21;100032.03;;;20.10;61.59
37390;BME280;39679;49.000;8.390;2022-10-16T03:53:21;100020.50;;;20.10;61.88
37390;BME280;39679;49.000;8.390;2022-10-16T03:58:22;100024.03;;;20.10;61.54
37390;BME280;39679;49.000;8.390;2022-10-16T04:03:22;100030.22;;;20.11;61.63
37390;BME280;39679;49.000;8.390;2022-10-16T04:08:23;100020.47;;;20.11;61.55
37390;BME280;39679;49.000;8.390;2022-10-16T04:13:23;100025.78;;;20.11;61.65
37390;BME280;39679;49.000;8.390;2022-10-16T04:18:23;100035.56;;;20.11;61.73
37390;BME280;39679;49.000;8.390;2022-10-16T04:23:24;100040.81;;;20.12;61.38
37390;BME280;39679;49.000;8.390;2022-10-16T04:28:24;100043.47;;;20.12;61.53
37390;BME280;39679;49.000;8.390;2022-10-16T04:33:24;100058.56;;;20.12;61.39
37390;BME280;39679;49.000;8.390;2022-10-16T04:38:25;100057.66;;;20.13;61.48
37390;BME280;39679;49.000;8.390;2022-10-16T04:43:25;100067.34;;;20.14;61.33
37390;BME280;39679;49.000;8.390;2022-10-16T04:48:26;100070.06;;;20.12;61.54
37390;BME280;39679;49.000;8.390;2022-10-16T04:53:26;100062.91;;;20.14;61.34
37390;BME280;39679;49.000;8.390;2022-10-16T04:58:26;100064.69;;;20.14;61.73
37390;BME280;39679;49.000;8.390;2022-10-16T05:03:27;100078.88;;;20.14;61.71
37390;BME280;39679;49.000;8.390;2022-10-16T05:08:27;100072.69;;;20.14;61.64
37390;BME280;39679;49.000;8.390;2022-10-16T05:13:27;100069.13;;;20.15;61.63
37390;BME280;39679;49.000;8.390;2022-10-16T05:18:28;100070.00;;;20.15;61.51
37390;BME280;39679;49.000;8.390;2022-10-16T05:23:28;100074.44;;;20.15;61.60
37390;BME280;39679;49.000;8.390;2022-10-16T05:28:29;100082.34;;;20.16;61.36
37390;BME280;39679;49.000;8.390;2022-10-16T05:33:30;100078.81;;;20.16;61.35
37390;BME280;39679;49.000;8.390;2022-10-16T05:38:30;100082.34;;;20.16;61.44
37390;BME280;39679;49.000;8.390;2022-10-16T05:43:31;100100.06;;;20.17;61.50
37390;BME280;39679;49.000;8.390;2022-10-16T05:48:32;100104.50;;;20.17;61.23
37390;BME280;39679;49.000;8.390;2022-10-16T05:53:34;100093.88;;;20.17;61.41
37390;BME280;39679;49.000;8.390;2022-10-16T05:58:36;100082.28;;;20.18;61.10
37390;BME280;39679;49.000;8.390;2022-10-16T06:03:37;100088.56;;;20.17;61.37
37390;BME280;39679;49.000;8.390;2022-10-16T06:08:38;100090.28;;;20.18;61.52
37390;BME280;39679;49.000;8.390;2022-10-16T06:13:38;100118.69;;;20.17;61.23
37390;BME280;39679;49.000;8.390;2022-10-16T06:18:38;100108.06;;;20.17;61.16
37390;BME280;39679;49.000;8.390;2022-10-16T06:23:39;100098.25;;;20.18;61.55
37390;BME280;39679;49.000;8.390;2022-10-16T06:28:39;100108.91;;;20.18;61.11
37390;BME280;39679;49.000;8.390;2022-10-16T06:33:40;100118.63;;;20.19;61.51
37390;BME280;39679;49.000;8.390;2022-10-16T06:38:41;100131.94;;;20.19;61.36
37390;BME280;39679;49.000;8.390;2022-10-16T06:43:42;100129.28;;;20.19;61.40
37390;BME280;39679;49.000;8.390;2022-10-16T06:48:43;100123.97;;;20.19;61.10
37390;BME280;39679;49.000;8.390;2022-10-16T06:53:46;100122.22;;;20.19;61.29
37390;BME280;39679;49.000;8.390;2022-10-16T06:58:47;100125.75;;;20.18;61.15
37390;BME280;39679;49.000;8.390;2022-10-16T07:03:47;100125.75;;;20.18;61.25
37390;BME280;39679;49.000;8.390;2022-10-16T07:08:49;100135.50;;;20.19;61.22
37390;BME280;39679;49.000;8.390;2022-10-16T07:13:50;100144.38;;;20.18;61.20
37390;BME280;39679;49.000;8.390;2022-10-16T07:18:51;100153.22;;;20.19;61.24
37390;BME280;39679;49.000;8.390;2022-10-16T07:23:52;100162.13;;;20.19;61.29
37390;BME280;39679;49.000;8.390;2022-10-16T07:28:53;100169.19;;;20.19;61.37
37390;BME280;39679;49.000;8.390;2022-10-16T07:33:54;100187.81;;;20.19;61.22
37390;BME280;39679;49.000;8.390;2022-10-16T07:38:54;100179.84;;;20.19;61.15
37390;BME280;39679;49.000;8.390;2022-10-16T07:43:55;100182.56;;;20.17;61.38
37390;BME280;39679;49.000;8.390;2022-10-16T07:48:55;100215.34;;;20.18;61.26
37390;BME280;39679;49.000;8.390;2022-10-16T07:53:56;100220.66;;;20.18;61.29
37390;BME280;39679;49.000;8.390;2022-10-16T07:58:56;100218.88;;;20.18;60.93
37390;BME280;39679;49.000;8.390;2022-10-16T08:03:57;100217.16;;;20.17;61.00
37390;BME280;39679;49.000;8.390;2022-10-16T08:08:57;100210.00;;;20.18;61.16
37390;BME280;39679;49.000;8.390;2022-10-16T08:13:57;100219.75;;;20.19;60.76
37390;BME280;39679;49.000;8.390;2022-10-16T08:18:58;100212.69;;;20.19;61.34
37390;BME280;39679;49.000;8.390;2022-10-16T08:23:58;100204.69;;;20.19;61.00
37390;BME280;39679;49.000;8.390;2022-10-16T08:28:58;100215.34;;;20.19;61.18
37390;BME280;39679;49.000;8.390;2022-10-16T08:33:59;100227.78;;;20.17;61.12
37390;BME280;39679;49.000;8.390;2022-10-16T08:39:00;100243.69;;;20.20;61.25
37390;BME280;39679;49.000;8.390;2022-10-16T08:49:19;100252.59;;;20.19;61.01
37390;BME280;39679;49.000;8.390;2022-10-16T08:54:26;100266.75;;;20.20;60.97
37390;BME280;39679;49.000;8.390;2022-10-16T08:59:28;100270.28;;;20.20;60.74
37390;BME280;39679;49.000;8.390;2022-10-16T09:10:19;100284.47;;;20.21;61.01
37390;BME280;39679;49.000;8.390;2022-10-16T09:21:05;100297.78;;;20.21;61.19
37390;BME280;39679;49.000;8.390;2022-10-16T09:26:11;100310.19;;;20.20;61.02
37390;BME280;39679;49.000;8.390;2022-10-16T09:31:16;100318.19;;;20.20;61.00
37390;BME280;39679;49.000;8.390;2022-10-16T09:36:18;100319.00;;;20.22;60.90
37390;BME280;39679;49.000;8.390;2022-10-16T09:41:21;100326.91;;;20.25;61.47
37390;BME280;39679;49.000;8.390;2022-10-16T09:51:33;100330.97;;;20.37;61.56
37390;BME280;39679;49.000;8.390;2022-10-16T09:56:35;100330.91;;;20.40;61.98
37390;BME280;39679;49.000;8.390;2022-10-16T10:01:37;100344.16;;;20.41;61.75
37390;BME280;39679;49.000;8.390;2022-10-16T10:06:50;100344.16;;;20.41;61.64
37390;BME280;39679;49.000;8.390;2022-10-16T10:11:57;100354.72;;;20.43;62.07
37390;BME280;39679;49.000;8.390;2022-10-16T10:22:39;100351.88;;;20.49;61.74
37390;BME280;39679;49.000;8.390;2022-10-16T10:28:16;100356.25;;;20.51;61.54
37390;BME280;39679;49.000;8.390;2022-10-16T10:38:53;100348.97;;;20.57;61.32
37390;BME280;39679;49.000;8.390;2022-10-16T10:55:19;100353.19;;;20.64;60.98
37390;BME280;39679;49.000;8.390;2022-10-16T11:00:31;100357.63;;;20.63;60.74
37390;BME280;39679;49.000;8.390;2022-10-16T11:05:43;100347.97;;;20.61;60.77
37390;BME280;39679;49.000;8.390;2022-10-16T11:10:49;100344.47;;;20.59;60.95
37390;BME280;39679;49.000;8.390;2022-10-16T11:15:54;100346.31;;;20.57;60.65
37390;BME280;39679;49.000;8.390;2022-10-16T11:21:04;100349.91;;;20.56;60.77
37390;BME280;39679;49.000;8.390;2022-10-16T11:26:11;100340.97;;;20.57;60.50
37390;BME280;39679;49.000;8.390;2022-10-16T11:31:22;100332.09;;;20.58;60.44
37390;BME280;39679;49.000;8.390;2022-10-16T11:36:38;100327.63;;;20.58;60.50
37390;BME280;39679;49.000;8.390;2022-10-16T11:52:15;100326.81;;;20.56;60.26
37390;BME280;39679;49.000;8.390;2022-10-16T11:57:36;100325.00;;;20.57;60.44
37390;BME280;39679;49.000;8.390;2022-10-16T12:03:04;100321.44;;;20.58;60.47
37390;BME280;39679;49.000;8.390;2022-10-16T12:08:12;100328.47;;;20.59;60.50
37390;BME280;39679;49.000;8.390;2022-10-16T12:13:36;100330.31;;;20.58;60.52
37390;BME280;39679;49.000;8.390;2022-10-16T12:18:38;100325.88;;;20.57;60.46
37390;BME280;39679;49.000;8.390;2022-10-16T12:23:47;100319.69;;;20.57;60.24
37390;BME280;39679;49.000;8.390;2022-10-16T12:28:48;100309.09;;;20.55;60.50
37390;BME280;39679;49.000;8.390;2022-10-16T12:34:01;100313.50;;;20.56;60.57
37390;BME280;39679;49.000;8.390;2022-10-16T12:39:02;100309.91;;;20.57;60.67
37390;BME280;39679;49.000;8.390;2022-10-16T12:44:03;100317.84;;;20.59;60.67
37390;BME280;39679;49.000;8.390;2022-10-16T12:49:31;100318.78;;;20.58;60.51
37390;BME280;39679;49.000;8.390;2022-10-16T12:54:36;100317.00;;;20.58;60.35
37390;BME280;39679;49.000;8.390;2022-10-16T13:10:28;100327.66;;;20.57;60.20
37390;BME280;39679;49.000;8.390;2022-10-16T13:15:52;100324.19;;;20.54;60.29
37390;BME280;39679;49.000;8.390;2022-10-16T13:21:26;100334.84;;;20.54;60.31
37390;BME280;39679;49.000;8.390;2022-10-16T13:31:39;100318.03;;;20.52;60.40
37390;BME280;39679;49.000;8.390;2022-10-16T13:36:48;100321.56;;;20.53;60.68
37390;BME280;39679;49.000;8.390;2022-10-16T13:42:12;100306.56;;;20.50;60.41
37390;BME280;39679;49.000;8.390;2022-10-16T13:52:19;100316.38;;;20.50;60.33
37390;BME280;39679;49.000;8.390;2022-10-16T13:57:22;100316.38;;;20.48;60.30
37390;BME280;39679;49.000;8.390;2022-10-16T14:02:31;100320.81;;;20.49;60.21
37390;BME280;39679;49.000;8.390;2022-10-16T14:07:34;100316.38;;;20.48;60.46
37390;BME280;39679;49.000;8.390;2022-10-16T14:12:35;100327.97;;;20.47;60.50
37390;BME280;39679;49.000;8.390;2022-10-16T14:17:35;100320.88;;;20.48;60.46
37390;BME280;39679;49.000;8.390;2022-10-16T14:22:39;100319.94;;;20.49;60.56
37390;BME280;39679;49.000;8.390;2022-10-16T14:27:39;100321.69;;;20.50;60.91
37390;BME280;39679;49.000;8.390;2022-10-16T14:32:41;100314.53;;;20.52;60.90
37390;BME280;39679;49.000;8.390;2022-10-16T14:37:43;100312.72;;;20.52;61.14
37390;BME280;39679;49.000;8.390;2022-10-16T14:42:44;100321.53;;;20.54;60.59
37390;BME280;39679;49.000;8.390;2022-10-16T14:48:00;100312.63;;;20.56;60.97
37390;BME280;39679;49.000;8.390;2022-10-16T14:53:01;100313.38;;;20.61;60.55
37390;BME280;39679;49.000;8.390;2022-10-16T14:58:02;100317.69;;;20.63;61.12
37390;BME280;39679;49.000;8.390;2022-10-16T15:03:02;100313.25;;;20.64;60.72
37390;BME280;39679;49.000;8.390;2022-10-16T15:08:03;100323.00;;;20.65;60.79
37390;BME280;39679;49.000;8.390;2022-10-16T15:13:03;100315.91;;;20.64;60.73
37390;BME280;39679;49.000;8.390;2022-10-16T15:18:04;100315.91;;;20.64;60.66
37390;BME280;39679;49.000;8.390;2022-10-16T15:23:16;100320.34;;;20.63;60.67
37390;BME280;39679;49.000;8.390;2022-10-16T15:28:17;100323.03;;;20.63;60.89
37390;BME280;39679;49.000;8.390;2022-10-16T15:33:21;100322.19;;;20.63;60.56
37390;BME280;39679;49.000;8.390;2022-10-16T15:38:22;100312.44;;;20.62;60.82
37390;BME280;39679;49.000;8.390;2022-10-16T15:43:22;100316.88;;;20.61;60.68
37390;BME280;39679;49.000;8.390;2022-10-16T15:48:23;100320.47;;;20.60;60.74
37390;BME280;39679;49.000;8.390;2022-10-16T15:53:23;100322.25;;;20.60;60.85
37390;BME280;39679;49.000;8.390;2022-10-16T15:58:24;100337.34;;;20.61;60.77
37390;BME280;39679;49.000;8.390;2022-10-16T16:03:24;100335.50;;;20.61;60.77
37390;BME280;39679;49.000;8.390;2022-10-16T16:08:24;100336.44;;;20.60;60.84
37390;BME280;39679;49.000;8.390;2022-10-16T16:13:25;100334.69;;;20.59;60.70
37390;BME280;39679;49.000;8.390;2022-10-16T16:18:25;100341.81;;;20.59;60.64
37390;BME280;39679;49.000;8.390;2022-10-16T16:23:26;100341.81;;;20.59;60.45
37390;BME280;39679;49.000;8.390;2022-10-16T16:28:26;100342.75;;;20.58;60.48
37390;BME280;39679;49.000;8.390;2022-10-16T16:33:26;100339.25;;;20.56;60.83
37390;BME280;39679;49.000;8.390;2022-10-16T16:38:27;100336.59;;;20.56;60.86
37390;BME280;39679;49.000;8.390;2022-10-16T16:43:28;100334.84;;;20.54;60.92
37390;BME280;39679;49.000;8.390;2022-10-16T16:48:28;100337.56;;;20.53;60.76
37390;BME280;39679;49.000;8.390;2022-10-16T16:53:28;100336.66;;;20.52;60.65
37390;BME280;39679;49.000;8.390;2022-10-16T16:58:29;100338.50;;;20.52;60.76
37390;BME280;39679;49.000;8.390;2022-10-16T17:03:31;100336.72;;;20.51;60.68
37390;BME280;39679;49.000;8.390;2022-10-16T17:08:33;100346.50;;;20.50;60.59
37390;BME280;39679;49.000;8.390;2022-10-16T17:13:34;100349.16;;;20.50;60.56
37390;BME280;39679;49.000;8.390;2022-10-16T17:18:34;100364.28;;;20.50;60.53
37390;BME280;39679;49.000;8.390;2022-10-16T17:23:36;100363.41;;;20.49;60.64
37390;BME280;39679;49.000;8.390;2022-10-16T17:28:37;100366.13;;;20.48;60.64
37390;BME280;39679;49.000;8.390;2022-10-16T17:33:38;100366.97;;;20.48;60.53
37390;BME280;39679;49.000;8.390;2022-10-16T17:38:40;100379.44;;;20.48;60.69
37390;BME280;39679;49.000;8.390;2022-10-16T17:43:41;100370.56;;;20.47;60.80
37390;BME280;39679;49.000;8.390;2022-10-16T17:48:44;100377.69;;;20.47;60.84
37390;BME280;39679;49.000;8.390;2022-10-16T17:53:49;100381.28;;;20.46;60.44
37390;BME280;39679;49.000;8.390;2022-10-16T17:58:52;100380.41;;;20.45;60.59
37390;BME280;39679;49.000;8.390;2022-10-16T18:03:55;100380.41;;;20.45;60.63
37390;BME280;39679;49.000;8.390;2022-10-16T18:08:57;100384.84;;;20.45;61.05
37390;BME280;39679;49.000;8.390;2022-10-16T18:13:58;100394.59;;;20.44;60.95
37390;BME280;39679;49.000;8.390;2022-10-16T18:18:59;100390.22;;;20.43;60.78
37390;BME280;39679;49.000;8.390;2022-10-16T18:23:59;100397.31;;;20.43;60.64
37390;BME280;39679;49.000;8.390;2022-10-16T18:29:00;100399.09;;;20.44;60.69
37390;BME280;39679;49.000;8.390;2022-10-16T18:34:00;100403.53;;;20.43;60.71
37390;BME280;39679;49.000;8.390;2022-10-16T18:39:03;100402.66;;;20.43;60.73
37390;BME280;39679;49.000;8.390;2022-10-16T18:44:05;100405.31;;;20.43;60.62
37390;BME280;39679;49.000;8.390;2022-10-16T18:49:06;100402.72;;;20.41;60.60
37390;BME280;39679;49.000;8.390;2022-10-16T18:54:08;100405.44;;;20.38;60.92
37390;BME280;39679;49.000;8.390;2022-10-16T18:59:09;100408.03;;;20.41;60.51
37390;BME280;39679;49.000;8.390;2022-10-16T19:04:11;100408.03;;;20.41;60.64
37390;BME280;39679;49.000;8.390;2022-10-16T19:09:13;100419.56;;;20.42;60.41
37390;BME280;39679;49.000;8.390;2022-10-16T19:14:15;100418.69;;;20.41;60.74
37390;BME280;39679;49.000;8.390;2022-10-16T19:19:16;100425.78;;;20.41;60.84
37390;BME280;39679;49.000;8.390;2022-10-16T19:24:17;100433.78;;;20.41;60.48
37390;BME280;39679;49.000;8.390;2022-10-16T19:29:17;100439.97;;;20.41;60.83
37390;BME280;39679;49.000;8.390;2022-10-16T19:34:18;100446.19;;;20.42;60.77
37390;BME280;39679;49.000;8.390;2022-10-16T19:39:18;100451.50;;;20.42;60.32
37390;BME280;39679;49.000;8.390;2022-10-16T19:44:18;100455.00;;;20.42;60.46
37390;BME280;39679;49.000;8.390;2022-10-16T19:49:19;100459.50;;;20.42;60.53
37390;BME280;39679;49.000;8.390;2022-10-16T19:54:21;100458.56;;;20.43;60.55
37390;BME280;39679;49.000;8.390;2022-10-16T19:59:22;100467.47;;;20.42;60.62
37390;BME280;39679;49.000;8.390;2022-10-16T20:04:22;100467.47;;;20.42;60.89
37390;BME280;39679;49.000;8.390;2022-10-16T20:09:23;100472.81;;;20.42;60.63
37390;BME280;39679;49.000;8.390;2022-10-16T20:14:23;100483.44;;;20.42;60.51
37390;BME280;39679;49.000;8.390;2022-10-16T20:19:23;100483.44;;;20.42;60.61
37390;BME280;39679;49.000;8.390;2022-10-16T20:24:24;100494.94;;;20.42;60.51
37390;BME280;39679;49.000;8.390;2022-10-16T20:29:24;100500.28;;;20.42;60.55
37390;BME280;39679;49.000;8.390;2022-10-16T20:34:25;100518.91;;;20.42;60.64
37390;BME280;39679;49.000;8.390;2022-10-16T20:39:25;100521.56;;;20.42;60.53
37390;BME280;39679;49.000;8.390;2022-10-16T20:44:26;100520.72;;;20.42;60.70
37390;BME280;39679;49.000;8.390;2022-10-16T20:49:26;100524.22;;;20.42;60.60
37390;BME280;39679;49.000;8.390;2022-10-16T20:54:26;100532.22;;;20.42;60.86
37390;BME280;39679;49.000;8.390;2022-10-16T20:59:27;100541.09;;;20.43;60.67
37390;BME280;39679;49.000;8.390;2022-10-16T21:04:27;100542.00;;;20.42;60.82
37390;BME280;39679;49.000;8.390;2022-10-16T21:09:27;100551.78;;;20.41;60.50
37390;BME280;39679;49.000;8.390;2022-10-16T21:14:28;100558.84;;;20.42;60.66
37390;BME280;39679;49.000;8.390;2022-10-16T21:19:29;100560.66;;;20.42;60.67
37390;BME280;39679;49.000;8.390;2022-10-16T21:24:29;100560.66;;;20.42;60.67
37390;BME280;39679;49.000;8.390;2022-10-16T21:29:30;100573.97;;;20.42;60.85
37390;BME280;39679;49.000;8.390;2022-10-16T21:34:30;100563.31;;;20.42;60.60
37390;BME280;39679;49.000;8.390;2022-10-16T21:39:30;100580.19;;;20.41;60.61
37390;BME280;39679;49.000;8.390;2022-10-16T21:44:31;100573.97;;;20.40;60.18
37390;BME280;39679;49.000;8.390;2022-10-16T21:49:31;100574.84;;;20.41;60.65
37390;BME280;39679;49.000;8.390;2022-10-16T21:54:31;100560.66;;;20.40;60.33
37390;BME280;39679;49.000;8.390;2022-10-16T21:59:32;100558.88;;;20.41;60.64
37390;BME280;39679;49.000;8.390;2022-10-16T22:04:32;100553.56;;;20.41;60.54
37390;BME280;39679;49.000;8.390;2022-10-16T22:09:32;100565.13;;;20.40;60.83
37390;BME280;39679;49.000;8.390;2022-10-16T22:14:33;100579.31;;;20.40;60.87
37390;BME280;39679;49.000;8.390;2022-10-16T22:19:33;100584.63;;;20.40;60.70
37390;BME280;39679;49.000;8.390;2022-10-16T22:24:33;100575.78;;;20.40;60.21
37390;BME280;39679;49.000;8.390;2022-10-16T22:29:34;100575.78;;;20.40;60.57
37390;BME280;39679;49.000;8.390;2022-10-16T22:34:34;100576.69;;;20.39;60.44
37390;BME280;39679;49.000;8.390;2022-10-16T22:39:34;100587.28;;;20.40;60.46
37390;BME280;39679;49.000;8.390;2022-10-16T22:44:35;100594.44;;;20.40;60.67
37390;BME280;39679;49.000;8.390;2022-10-16T22:49:35;100596.19;;;20.39;60.63
37390;BME280;39679;49.000;8.390;2022-10-16T22:54:35;100594.44;;;20.40;60.30
37390;BME280;39679;49.000;8.390;2022-10-16T22:59:36;100599.75;;;20.40;60.41
37390;BME280;39679;49.000;8.390;2022-10-16T23:04:36;100596.19;;;20.39;60.28
37390;BME280;39679;49.000;8.390;2022-10-16T23:09:37;100609.50;;;20.39;60.23
37390;BME280;39679;49.000;8.390;2022-10-16T23:14:37;100615.72;;;20.40;60.61
37390;BME280;39679;49.000;8.390;2022-10-16T23:19:37;100617.50;;;20.39;60.22
37390;BME280;39679;49.000;8.390;2022-10-16T23:24:38;100626.38;;;20.40;60.33
37390;BME280;39679;49.000;8.390;2022-10-16T23:29:38;100617.50;;;20.39;60.20
37390;BME280;39679;49.000;8.390;2022-10-16T23:34:38;100616.63;;;20.39;60.15
37390;BME280;39679;49.000;8.390;2022-10-16T23:39:39;100621.94;;;20.39;60.08
37390;BME280;39679;49.000;8.390;2022-10-16T23:44:39;100629.94;;;20.39;60.15
37390;BME280;39679;49.000;8.390;2022-10-16T23:49:39;100634.38;;;20.38;60.06
37390;BME280;39679;49.000;8.390;2022-10-16T23:54:40;100641.47;;;20.39;60.27
37390;BME280;39679;49.000;8.390;2022-10-16T23:59:40;100635.31;;;20.37;60.16
